Michigan — WDF5344 — position and weather

sailwx.info

Track history (hours):
 
Tides and Currents Weather Stations Pressure Air Temp Water Temp Dewpoint Dewpoint Depression Visibility Wind Speed Wind Dir Waves Ship Positions

Michigan

Owner: GATX Third Aircraft Corporation, San Francisco, CA. More information available from US FCC via Universal Licensing System and Coast Guard Vessel Documentation Center.

Last reported at 2015-Aug-28 04:32 UTC. Time now 2015-Aug-28 05:17 UTC.
Position N 45°35' W 083°60'.

Length 144 m.

Type: Ship (hazmat cat D). MMSI: 303583000.

Date/timePositionNaut miles runAvg speedWind from/ knotsBaromVisibWave heightAir tempDewpointWater temp
2015-Aug-28 04:32N 45°35' W 083°60'30 6.7
2015-Aug-28 00:00N 45°18' W 083°24'12210.2 190 / 131020.9 0.5-14.9
2015-Aug-27 12:00N 43°24' W 082°24'30 3.3 300 / 141019.9 0.514.9
2015-Aug-27 03:00N 42°54' W 082°24'99 2.7 320 / 41019.2 14.9
2015-Aug-25 14:27N 42°41' W 080°11'2 2.7
2015-Aug-25 13:33N 42°42' W 080°13'0 0.0
2015-Aug-25 11:18N 42°42' W 080°13'0 0.0
2015-Aug-25 10:33N 42°42' W 080°13'0 0.1
2015-Aug-25 09:33N 42°42' W 080°13'0 0.1
2015-Aug-25 08:33N 42°42' W 080°13'0 0.0
2015-Aug-25 07:09N 42°42' W 080°13'0 0.0
2015-Aug-25 06:30N 42°42' W 080°13'0 0.0
2015-Aug-25 04:24N 42°42' W 080°13'0 0.1
2015-Aug-25 02:15N 42°42' W 080°13'0 0.0
2015-Aug-25 00:24N 42°42' W 080°13'0 0.0
2015-Aug-24 23:09N 42°42' W 080°13'0 0.2
2015-Aug-24 22:33N 42°42' W 080°13'8 7.8
2015-Aug-24 21:32N 42°42' W 080°02'44 7.1
2015-Aug-24 15:25N 43°06' W 079°12'2 2.5
2015-Aug-24 14:34N 43°08' W 079°12'0 0.5
2015-Aug-24 13:33N 43°08' W 079°12'1 0.9
2015-Aug-24 12:33N 43°09' W 079°12'2 2.2
2015-Aug-24 11:33N 43°11' W 079°12'2 2.1
2015-Aug-24 10:33N 43°13' W 079°13'3 2.8
2015-Aug-24 09:33N 43°16' W 079°13'9 9.4
2015-Aug-24 08:33N 43°23' W 079°05'11 9.8
2015-Aug-24 07:28N 43°26' W 078°50'9 9.8
2015-Aug-24 06:33N 43°29' W 078°39'10 9.8
2015-Aug-24 05:33N 43°33' W 078°26'9310.3
2015-Aug-23 20:34N 44°04' W 076°26'8 6.8
2015-Aug-23 19:25N 44°10' W 076°19'910.1
2015-Aug-23 18:30N 44°14' W 076°08'111 6.5
2015-Aug-23 01:25N 45°15' W 073°58'4 4.2
2015-Aug-23 00:33N 45°19' W 073°55'1 1.4
2015-Aug-22 23:33N 45°20' W 073°55'8 8.3
2015-Aug-22 22:33N 45°24' W 073°45'8 6.7
2015-Aug-22 21:25N 45°24' W 073°34'  
2015-Aug-19 23:19N 45°30' W 073°31'1 1.6
2015-Aug-19 22:28N 45°29' W 073°31'5 2.4
2015-Aug-19 20:17N 45°24' W 073°35'0 0.0
2015-Aug-19 19:33N 45°24' W 073°34'4 4.1
2015-Aug-19 18:30N 45°25' W 073°41'1010.3
2015-Aug-19 17:33N 45°21' W 073°53'3 3.1
2015-Aug-19 16:34N 45°18' W 073°56'128 8.4
2015-Aug-19 01:19N 44°06' W 076°24'12310.4
2015-Aug-18 13:32N 43°21' W 079°02'1010.4
2015-Aug-18 12:33N 43°15' W 079°13'3 3.0
2015-Aug-18 11:33N 43°12' W 079°12'2 2.4
2015-Aug-18 10:33N 43°09' W 079°12'1 1.1
2015-Aug-18 09:33N 43°08' W 079°12'1 0.6
2015-Aug-18 08:33N 43°08' W 079°12'1 0.8
2015-Aug-18 07:33N 43°07' W 079°12'5 4.0
2015-Aug-18 06:19N 43°02' W 079°13'6 7.7
2015-Aug-18 05:29N 42°56' W 079°14'2 2.2
2015-Aug-18 04:33N 42°54' W 079°15'  
Track history (hours):
 
Tides and Currents Weather Stations Pressure Air Temp Water Temp Dewpoint Dewpoint Depression Visibility Wind Speed Wind Dir Waves Ship Positions

Michigan

Owner: GATX Third Aircraft Corporation, San Francisco, CA. More information available from US FCC via Universal Licensing System and Coast Guard Vessel Documentation Center.

Last reported at 2015-Aug-28 04:32 UTC. Time now 2015-Aug-28 05:17 UTC.
Position N 45°35' W 083°60'.

Length 144 m.

Type: Ship (hazmat cat D). MMSI: 303583000.

Date/timePositionNaut miles runAvg speedWind from/ knotsBaromVisibWave heightAir tempDewpointWater temp
2015-Aug-28 04:32N 45°35' W 083°60'30 6.7
2015-Aug-28 00:00N 45°18' W 083°24'12210.2 190 / 131020.9 0.5-14.9
2015-Aug-27 12:00N 43°24' W 082°24'30 3.3 300 / 141019.9 0.514.9
2015-Aug-27 03:00N 42°54' W 082°24'99 2.7 320 / 41019.2 14.9
2015-Aug-25 14:27N 42°41' W 080°11'2 2.7
2015-Aug-25 13:33N 42°42' W 080°13'0 0.0
2015-Aug-25 11:18N 42°42' W 080°13'0 0.0
2015-Aug-25 10:33N 42°42' W 080°13'0 0.1
2015-Aug-25 09:33N 42°42' W 080°13'0 0.1
2015-Aug-25 08:33N 42°42' W 080°13'0 0.0
2015-Aug-25 07:09N 42°42' W 080°13'0 0.0
2015-Aug-25 06:30N 42°42' W 080°13'0 0.0
2015-Aug-25 04:24N 42°42' W 080°13'0 0.1
2015-Aug-25 02:15N 42°42' W 080°13'0 0.0
2015-Aug-25 00:24N 42°42' W 080°13'0 0.0
2015-Aug-24 23:09N 42°42' W 080°13'0 0.2
2015-Aug-24 22:33N 42°42' W 080°13'8 7.8
2015-Aug-24 21:32N 42°42' W 080°02'44 7.1
2015-Aug-24 15:25N 43°06' W 079°12'2 2.5
2015-Aug-24 14:34N 43°08' W 079°12'0 0.5
2015-Aug-24 13:33N 43°08' W 079°12'1 0.9
2015-Aug-24 12:33N 43°09' W 079°12'2 2.2
2015-Aug-24 11:33N 43°11' W 079°12'2 2.1
2015-Aug-24 10:33N 43°13' W 079°13'3 2.8
2015-Aug-24 09:33N 43°16' W 079°13'9 9.4
2015-Aug-24 08:33N 43°23' W 079°05'11 9.8
2015-Aug-24 07:28N 43°26' W 078°50'9 9.8
2015-Aug-24 06:33N 43°29' W 078°39'10 9.8
2015-Aug-24 05:33N 43°33' W 078°26'9310.3
2015-Aug-23 20:34N 44°04' W 076°26'8 6.8
2015-Aug-23 19:25N 44°10' W 076°19'910.1
2015-Aug-23 18:30N 44°14' W 076°08'111 6.5
2015-Aug-23 01:25N 45°15' W 073°58'4 4.2
2015-Aug-23 00:33N 45°19' W 073°55'1 1.4
2015-Aug-22 23:33N 45°20' W 073°55'8 8.3
2015-Aug-22 22:33N 45°24' W 073°45'8 6.7
2015-Aug-22 21:25N 45°24' W 073°34'  
2015-Aug-19 23:19N 45°30' W 073°31'1 1.6
2015-Aug-19 22:28N 45°29' W 073°31'5 2.4
2015-Aug-19 20:17N 45°24' W 073°35'0 0.0
2015-Aug-19 19:33N 45°24' W 073°34'4 4.1
2015-Aug-19 18:30N 45°25' W 073°41'1010.3
2015-Aug-19 17:33N 45°21' W 073°53'3 3.1
2015-Aug-19 16:34N 45°18' W 073°56'128 8.4
2015-Aug-19 01:19N 44°06' W 076°24'12310.4
2015-Aug-18 13:32N 43°21' W 079°02'1010.4
2015-Aug-18 12:33N 43°15' W 079°13'3 3.0
2015-Aug-18 11:33N 43°12' W 079°12'2 2.4
2015-Aug-18 10:33N 43°09' W 079°12'1 1.1
2015-Aug-18 09:33N 43°08' W 079°12'1 0.6
2015-Aug-18 08:33N 43°08' W 079°12'1 0.8
2015-Aug-18 07:33N 43°07' W 079°12'5 4.0
2015-Aug-18 06:19N 43°02' W 079°13'6 7.7
2015-Aug-18 05:29N 42°56' W 079°14'2 2.2
2015-Aug-18 04:33N 42°54' W 079°15'  

Dump ship's entire track history